createdAt,value
2022-11-18T13:25:26.132Z,9.60
2022-11-18T13:28:24.677Z,9.50
2022-11-18T13:31:28.891Z,9.70
2022-11-18T13:33:55.592Z,9.30
2022-11-18T13:36:26.273Z,9.30
2022-11-18T13:39:02.970Z,9.20
2022-11-18T13:41:34.464Z,9.30
2022-11-18T13:44:24.153Z,9.20
2022-11-18T13:47:06.572Z,9.20
2022-11-18T13:49:45.000Z,9.20
2022-11-18T13:52:22.459Z,9.20
2022-11-18T13:54:51.829Z,9.30
2022-11-18T13:57:22.417Z,9.50
2022-11-18T13:59:50.450Z,9.50
2022-11-18T14:02:17.665Z,9.50
2022-11-18T14:05:21.314Z,9.60
2022-11-18T14:08:04.912Z,9.70
2022-11-18T14:10:39.665Z,9.80
2022-11-18T14:13:18.838Z,9.70
2022-11-18T14:15:45.781Z,9.60
2022-11-18T14:18:25.123Z,9.80
2022-11-18T14:20:54.086Z,9.80
2022-11-18T14:23:34.866Z,9.70
2022-11-18T14:26:06.290Z,9.80
2022-11-18T14:28:39.514Z,9.80
2022-11-18T14:31:28.070Z,9.70
2022-11-18T14:34:19.143Z,9.50
2022-11-18T14:36:46.908Z,9.40
2022-11-18T14:39:40.040Z,9.30
2022-11-18T14:42:12.877Z,9.40
2022-11-18T14:44:39.576Z,9.40
2022-11-18T14:47:24.872Z,9.30
2022-11-18T14:49:51.788Z,9.40
2022-11-18T14:52:18.548Z,9.60
2022-11-18T14:54:45.417Z,9.30
2022-11-18T14:57:16.349Z,9.20
2022-11-18T14:59:43.406Z,9.70
2022-11-18T15:02:15.633Z,8.80
2022-11-18T15:04:42.633Z,8.50
2022-11-18T15:07:23.121Z,9.20
2022-11-18T15:09:50.725Z,8.80
2022-11-18T15:12:17.725Z,8.70
2022-11-18T15:14:44.380Z,8.60
2022-11-18T15:17:12.393Z,8.60
2022-11-18T15:19:40.631Z,8.50
2022-11-18T15:22:07.651Z,8.50
2022-11-18T15:24:34.365Z,8.50
2022-11-18T15:27:05.149Z,8.40
2022-11-18T15:29:32.222Z,8.40
2022-11-18T15:31:59.941Z,8.40
2022-11-18T15:34:26.633Z,8.40
2022-11-18T15:36:53.305Z,8.50
2022-11-18T15:39:19.928Z,8.30
2022-11-18T15:41:46.608Z,8.30
2022-11-18T15:44:13.269Z,8.30
2022-11-18T15:46:40.230Z,8.20
2022-11-18T15:49:09.572Z,8.20
2022-11-18T15:51:36.998Z,8.20
2022-11-18T15:54:03.754Z,8.20
2022-11-18T15:56:31.175Z,8.20
2022-11-18T15:59:10.173Z,8.20
2022-11-18T16:01:39.381Z,8.10
2022-11-18T16:04:09.199Z,8.10
2022-11-18T16:06:36.471Z,8.10
2022-11-18T16:09:04.042Z,8.10
2022-11-18T16:11:49.208Z,8.10
2022-11-18T16:14:18.755Z,8.10
2022-11-18T16:16:47.709Z,8.10
2022-11-18T16:19:20.491Z,8.10
2022-11-18T16:21:49.636Z,8.00
2022-11-18T16:24:22.669Z,8.00
2022-11-18T16:26:50.119Z,8.00
2022-11-18T16:29:18.815Z,8.00
2022-11-18T16:31:50.810Z,8.00
2022-11-18T16:34:23.851Z,7.90
2022-11-18T16:36:55.619Z,7.90
2022-11-18T16:39:25.116Z,7.90
2022-11-18T16:42:02.103Z,7.80
2022-11-18T16:44:33.346Z,7.80
2022-11-18T16:47:00.194Z,7.80
2022-11-18T16:49:27.876Z,7.80
2022-11-18T16:51:56.334Z,7.80
2022-11-18T16:54:28.937Z,7.80
2022-11-18T16:56:58.154Z,7.80
2022-11-18T16:59:27.421Z,7.70
2022-11-18T17:01:55.623Z,7.80
2022-11-18T17:04:24.550Z,7.80
2022-11-18T17:06:51.695Z,7.80
2022-11-18T17:09:24.386Z,8.50
2022-11-18T17:11:52.531Z,8.30
2022-11-18T17:14:19.749Z,8.30
2022-11-18T17:16:46.855Z,8.10
2022-11-18T17:19:22.484Z,8.40
2022-11-18T17:21:50.571Z,7.90
2022-11-18T17:24:20.719Z,7.90
2022-11-18T17:26:48.691Z,8.60
2022-11-18T17:29:16.069Z,7.60
2022-11-18T17:31:43.584Z,8.60
2022-11-18T17:34:13.073Z,8.40
2022-11-18T17:36:39.868Z,7.90
2022-11-18T17:39:07.226Z,8.40
2022-11-18T17:41:52.717Z,8.30
2022-11-18T17:44:19.644Z,7.90
2022-11-18T17:46:47.353Z,8.50
2022-11-18T17:49:17.910Z,8.30
2022-11-18T17:51:46.110Z,7.80
2022-11-18T17:54:14.237Z,8.20
2022-11-18T17:56:41.356Z,8.30
2022-11-18T17:59:08.101Z,8.30
2022-11-18T18:01:35.770Z,8.10
2022-11-18T18:04:03.084Z,8.10
2022-11-18T18:06:30.062Z,8.30
2022-11-18T18:08:57.960Z,8.30
2022-11-18T18:11:25.841Z,7.80
2022-11-18T18:14:11.402Z,8.10
2022-11-18T18:16:48.869Z,8.20
2022-11-18T18:19:20.726Z,7.90
2022-11-18T18:21:47.501Z,7.90
2022-11-18T18:24:16.371Z,7.90
2022-11-18T18:26:43.366Z,7.90
2022-11-18T18:29:11.079Z,7.80
2022-11-18T18:31:37.963Z,7.80
2022-11-18T18:34:05.231Z,8.20
2022-11-18T18:36:32.069Z,8.20
2022-11-18T18:38:59.661Z,8.50
2022-11-18T18:41:27.189Z,8.30
2022-11-18T18:43:54.095Z,8.30
2022-11-18T18:46:30.234Z,8.40
2022-11-18T18:49:06.197Z,8.20
2022-11-18T18:51:56.419Z,8.30
2022-11-18T18:54:23.290Z,7.80
2022-11-18T18:56:50.187Z,7.10
2022-11-18T18:59:17.021Z,8.20
2022-11-18T19:01:43.941Z,7.80
2022-11-18T19:04:11.711Z,7.80
2022-11-18T19:09:27.358Z,8.20
2022-11-18T19:12:13.244Z,7.80
2022-11-18T19:14:40.386Z,8.00
2022-11-18T19:17:12.371Z,7.70
2022-11-18T19:20:00.164Z,8.40
2022-11-18T19:22:30.505Z,8.30
2022-11-18T19:24:58.167Z,8.30
2022-11-18T19:27:25.851Z,8.10
2022-11-18T19:29:52.959Z,7.70
2022-11-18T19:32:19.822Z,7.80
2022-11-18T19:34:46.637Z,7.70
2022-11-18T19:37:13.483Z,8.50
2022-11-18T19:39:40.268Z,8.60
2022-11-18T19:42:07.661Z,7.60
2022-11-18T19:44:34.500Z,7.80
2022-11-18T19:47:01.295Z,7.80
2022-11-18T19:49:28.167Z,8.50
2022-11-18T19:51:54.957Z,7.70
2022-11-18T19:54:21.950Z,8.10
2022-11-18T19:56:48.737Z,7.60
2022-11-18T19:59:15.700Z,8.10
2022-11-18T20:01:43.313Z,7.60
2022-11-18T20:04:10.112Z,7.60
2022-11-18T20:06:37.398Z,8.00
2022-11-18T20:09:08.038Z,8.60
2022-11-18T20:11:35.324Z,8.20
2022-11-18T20:14:02.406Z,7.50
2022-11-18T20:16:29.194Z,8.40
2022-11-18T20:19:04.996Z,7.80
2022-11-18T20:21:34.656Z,8.20
2022-11-18T20:24:04.181Z,8.40
2022-11-18T20:26:36.539Z,8.00
2022-11-18T20:29:03.632Z,8.20
2022-11-18T20:31:32.881Z,8.10
2022-11-18T20:34:00.161Z,8.00
2022-11-18T20:36:31.280Z,8.20
2022-11-18T20:39:00.882Z,8.10
2022-11-18T20:41:30.568Z,8.30
2022-11-18T20:43:57.822Z,8.10
2022-11-18T20:46:24.969Z,7.50
2022-11-18T20:48:52.069Z,7.90
2022-11-18T20:51:21.252Z,7.80
2022-11-18T20:53:48.221Z,8.00
2022-11-18T20:56:21.654Z,8.10
2022-11-18T20:58:49.018Z,8.30
2022-11-18T21:01:22.467Z,7.80
2022-11-18T21:03:54.744Z,7.10
2022-11-18T21:06:23.353Z,8.40
2022-11-18T21:08:58.550Z,7.20
2022-11-18T21:11:26.336Z,7.50
2022-11-18T21:14:12.058Z,7.90
2022-11-18T21:16:40.813Z,8.10
2022-11-18T21:19:07.640Z,7.40
2022-11-18T21:21:47.867Z,8.20
2022-11-18T21:24:24.608Z,8.00
2022-11-18T21:26:54.845Z,8.10
2022-11-18T21:29:23.285Z,8.00
2022-11-18T21:31:50.782Z,7.50
2022-11-18T21:34:18.871Z,7.60
2022-11-18T21:36:50.333Z,7.60
2022-11-18T21:39:20.410Z,7.40
2022-11-18T21:41:52.079Z,7.90
2022-11-18T21:44:21.943Z,7.80
2022-11-18T21:46:48.814Z,8.20
2022-11-18T21:49:15.734Z,7.50
2022-11-18T21:51:44.212Z,8.20
2022-11-18T21:54:12.620Z,7.50
2022-11-18T21:56:39.529Z,7.50
2022-11-18T21:59:07.658Z,7.80
2022-11-18T22:01:34.947Z,7.80
2022-11-18T22:04:03.840Z,8.30
2022-11-18T22:06:33.769Z,7.70
2022-11-18T22:09:02.111Z,7.50
2022-11-18T22:11:28.988Z,7.50
2022-11-18T22:13:56.054Z,8.10
2022-11-18T22:16:24.831Z,8.30
2022-11-18T22:18:58.042Z,8.20
2022-11-18T22:21:27.252Z,8.40
2022-11-18T22:23:58.651Z,7.80
2022-11-18T22:26:25.705Z,7.60
2022-11-18T22:28:54.689Z,7.80
2022-11-18T22:31:22.648Z,8.10
2022-11-18T22:33:51.368Z,7.40
2022-11-18T22:36:19.825Z,8.10
2022-11-18T22:38:47.416Z,7.80
2022-11-18T22:41:38.400Z,7.40
2022-11-18T22:44:08.095Z,7.40
2022-11-18T22:46:39.473Z,7.00
2022-11-18T22:49:07.369Z,8.10
2022-11-18T22:51:34.589Z,7.30
2022-11-18T22:54:36.363Z,7.90
2022-11-18T22:56:48.621Z,7.80
2022-11-18T22:59:15.637Z,7.80
2022-11-18T23:01:42.558Z,7.30
2022-11-18T23:04:09.386Z,6.70
2022-11-18T23:06:36.201Z,7.30
2022-11-18T23:09:03.039Z,7.90
2022-11-18T23:11:49.328Z,7.40
2022-11-18T23:14:16.087Z,7.50
2022-11-18T23:16:43.681Z,8.00
2022-11-18T23:19:15.421Z,6.90
2022-11-18T23:21:43.228Z,7.50
2022-11-18T23:24:11.470Z,8.10
2022-11-18T23:26:38.470Z,8.20
2022-11-18T23:29:05.582Z,8.00
2022-11-18T23:31:32.845Z,7.80
2022-11-18T23:33:59.966Z,8.20
2022-11-18T23:36:27.429Z,7.90
2022-11-18T23:38:54.335Z,7.60
2022-11-18T23:41:21.635Z,7.40
2022-11-18T23:43:49.435Z,7.80
2022-11-18T23:46:17.583Z,7.80
2022-11-18T23:48:45.114Z,7.90
2022-11-18T23:51:13.624Z,6.70
2022-11-18T23:53:40.838Z,8.10
2022-11-18T23:56:12.902Z,7.40
2022-11-18T23:58:41.135Z,7.20
